createdAt,value
2019-02-15T00:00:38.038Z,103309.42
2019-02-15T00:03:08.033Z,103306.86
2019-02-15T00:05:37.008Z,103299.22
2019-02-15T00:08:05.973Z,103303.96
2019-02-15T00:10:34.819Z,103300.21
2019-02-15T00:13:03.707Z,103301.06
2019-02-15T00:15:32.384Z,103295.95
2019-02-15T00:18:20.287Z,103301.77
2019-02-15T00:21:06.341Z,103302.67
2019-02-15T00:23:35.235Z,103301.89
2019-02-15T00:26:03.860Z,103306.70
2019-02-15T00:28:32.501Z,103303.46
2019-02-15T00:31:01.880Z,103306.81
2019-02-15T00:33:30.781Z,103301.11
2019-02-15T00:35:59.939Z,103298.64
2019-02-15T00:38:28.847Z,103294.31
2019-02-15T00:40:58.195Z,103298.72
2019-02-15T00:43:27.116Z,103299.53
2019-02-15T00:46:07.315Z,103291.66
2019-02-15T00:48:36.191Z,103293.45
2019-02-15T00:51:31.739Z,103297.33
2019-02-15T00:54:10.002Z,103303.38
2019-02-15T00:56:45.827Z,103301.77
2019-02-15T00:59:37.031Z,103300.75
2019-02-15T01:02:37.001Z,103296.78
2019-02-15T01:05:15.686Z,103296.28
2019-02-15T01:08:11.552Z,103302.34
2019-02-15T01:10:48.823Z,103304.66
2019-02-15T01:13:20.387Z,103305.00
2019-02-15T01:15:49.240Z,103312.25
2019-02-15T01:18:17.909Z,103304.61
2019-02-15T01:20:46.565Z,103304.37
2019-02-15T01:23:15.667Z,103306.42
2019-02-15T01:26:09.714Z,103305.36
2019-02-15T01:28:45.543Z,103313.48
2019-02-15T01:31:42.457Z,103315.73
2019-02-15T01:34:39.366Z,103317.63
2019-02-15T01:37:18.691Z,103313.70
2019-02-15T01:40:05.014Z,103309.48
2019-02-15T01:42:40.741Z,103314.48
2019-02-15T01:45:22.660Z,103312.16
2019-02-15T01:47:52.182Z,103306.56
2019-02-15T01:50:20.858Z,103300.13
2019-02-15T01:52:49.736Z,103305.00
2019-02-15T01:55:18.663Z,103296.17
2019-02-15T01:57:47.362Z,103304.17
2019-02-15T02:00:17.751Z,103302.67
2019-02-15T02:02:46.925Z,103302.11
2019-02-15T02:05:15.553Z,103299.53
2019-02-15T02:07:44.548Z,103303.61
2019-02-15T02:10:13.256Z,103297.36
2019-02-15T02:12:41.994Z,103301.32
2019-02-15T02:15:11.691Z,103299.99
2019-02-15T02:17:40.615Z,103296.14
2019-02-15T02:20:10.006Z,103298.81
2019-02-15T02:22:39.000Z,103300.89
2019-02-15T02:25:07.831Z,103301.27
2019-02-15T02:27:36.490Z,103292.82
2019-02-15T02:30:07.276Z,103289.97
2019-02-15T02:32:35.963Z,103291.67
2019-02-15T02:35:05.195Z,103292.62
2019-02-15T02:37:33.848Z,103291.34
2019-02-15T02:40:02.504Z,103292.16
2019-02-15T02:42:31.890Z,103289.61
2019-02-15T02:45:00.815Z,103292.68
2019-02-15T02:47:29.757Z,103291.43
2019-02-15T02:49:58.678Z,103290.70
2019-02-15T02:52:27.590Z,103292.98
2019-02-15T02:54:56.462Z,103299.58
2019-02-15T02:57:25.392Z,103296.56
2019-02-15T02:59:54.283Z,103294.33
2019-02-15T03:02:23.686Z,103296.89
2019-02-15T03:04:52.338Z,103292.88
2019-02-15T03:07:20.999Z,103290.70
2019-02-15T03:09:49.895Z,103290.31
2019-02-15T03:12:18.549Z,103290.86
2019-02-15T03:14:47.454Z,103286.08
2019-02-15T03:17:16.067Z,103284.33
2019-02-15T03:19:45.000Z,103284.88
2019-02-15T03:22:14.210Z,103283.86
2019-02-15T03:24:43.386Z,103281.75
2019-02-15T03:27:12.007Z,103284.48
2019-02-15T03:29:40.917Z,103281.69
2019-02-15T03:32:10.163Z,103278.63
2019-02-15T03:34:38.811Z,103288.36
2019-02-15T03:37:19.950Z,103278.52
2019-02-15T03:39:51.465Z,103281.22
2019-02-15T03:42:20.115Z,103277.12
2019-02-15T03:44:49.247Z,103289.27
2019-02-15T03:47:24.007Z,103286.34
2019-02-15T03:49:52.954Z,103285.81
2019-02-15T03:52:21.623Z,103279.30
2019-02-15T03:54:50.492Z,103282.23
2019-02-15T03:57:19.781Z,103274.95
2019-02-15T03:59:48.754Z,103277.27
2019-02-15T04:02:17.679Z,103279.30
2019-02-15T04:04:46.365Z,103272.92
2019-02-15T04:07:15.007Z,103269.98
2019-02-15T04:09:43.964Z,103271.26
2019-02-15T04:12:12.607Z,103270.63
2019-02-15T04:14:41.856Z,103263.58
2019-02-15T04:17:10.776Z,103266.24
2019-02-15T04:19:39.954Z,103261.02
2019-02-15T04:22:08.906Z,103267.42
2019-02-15T04:24:38.064Z,103263.56
2019-02-15T04:27:06.982Z,103266.27
2019-02-15T04:29:35.622Z,103259.72
2019-02-15T04:32:04.820Z,103262.55
2019-02-15T04:34:33.490Z,103263.95
2019-02-15T04:37:02.425Z,103268.31
2019-02-15T04:39:31.086Z,103266.50
2019-02-15T04:42:00.206Z,103265.23
2019-02-15T04:44:28.856Z,103272.02
2019-02-15T04:46:57.540Z,103269.83
2019-02-15T04:49:26.194Z,103275.59
2019-02-15T04:51:54.840Z,103269.06
2019-02-15T04:54:24.024Z,103271.37
2019-02-15T04:56:52.671Z,103279.81
2019-02-15T04:59:21.358Z,103276.11
2019-02-15T05:01:50.031Z,103281.99
2019-02-15T05:04:18.937Z,103280.70
2019-02-15T05:06:47.628Z,103278.16
2019-02-15T05:09:17.112Z,103275.47
2019-02-15T05:11:45.770Z,103272.66
2019-02-15T05:14:14.696Z,103280.59
2019-02-15T05:16:44.180Z,103278.39
2019-02-15T05:19:13.568Z,103275.70
2019-02-15T05:21:42.591Z,103280.71
2019-02-15T05:24:11.762Z,103277.53
2019-02-15T05:26:40.392Z,103276.61
2019-02-15T05:29:09.304Z,103277.13
2019-02-15T05:31:38.218Z,103269.57
2019-02-15T05:34:07.116Z,103270.34
2019-02-15T05:36:36.079Z,103267.68
2019-02-15T05:39:07.186Z,103272.80
2019-02-15T05:41:36.073Z,103266.13
2019-02-15T05:44:05.019Z,103262.92
2019-02-15T05:46:34.367Z,103267.92
2019-02-15T05:49:03.492Z,103268.70
2019-02-15T05:51:32.437Z,103273.28
2019-02-15T05:54:01.379Z,103263.95
2019-02-15T05:56:30.072Z,103270.98
2019-02-15T05:58:59.212Z,103266.66
2019-02-15T06:01:29.349Z,103273.28
2019-02-15T06:03:58.289Z,103273.56
2019-02-15T06:06:27.141Z,103276.09
2019-02-15T06:08:55.801Z,103278.27
2019-02-15T06:11:24.679Z,103275.22
2019-02-15T06:13:53.839Z,103272.65
2019-02-15T06:16:23.004Z,103279.33
2019-02-15T06:18:51.907Z,103276.88
2019-02-15T06:21:20.816Z,103281.47
2019-02-15T06:23:49.760Z,103285.70
2019-02-15T06:26:18.675Z,103279.69
2019-02-15T06:28:47.813Z,103283.91
2019-02-15T06:31:16.707Z,103283.77
2019-02-15T06:33:46.164Z,103289.53
2019-02-15T06:36:15.079Z,103290.05
2019-02-15T06:38:43.748Z,103289.67
2019-02-15T06:41:12.697Z,103288.11
2019-02-15T06:43:41.813Z,103285.05
2019-02-15T06:46:10.531Z,103283.00
2019-02-15T06:48:39.205Z,103293.38
2019-02-15T06:51:08.091Z,103294.66
2019-02-15T06:53:36.720Z,103290.71
2019-02-15T06:56:05.466Z,103290.94
2019-02-15T06:58:45.242Z,103292.61
2019-02-15T07:01:35.050Z,103289.41
2019-02-15T07:04:19.263Z,103288.92
2019-02-15T07:06:48.260Z,103290.20
2019-02-15T07:09:17.414Z,103284.27
2019-02-15T07:11:46.306Z,103286.99
2019-02-15T07:14:15.214Z,103285.08
2019-02-15T07:16:44.117Z,103284.67
2019-02-15T07:19:12.853Z,103292.59
2019-02-15T07:21:41.778Z,103291.31
2019-02-15T07:24:10.412Z,103298.63
2019-02-15T07:26:39.544Z,103296.08
2019-02-15T07:29:08.687Z,103290.66
2019-02-15T07:31:37.594Z,103298.45
2019-02-15T07:34:06.523Z,103300.63
2019-02-15T07:36:35.185Z,103307.67
2019-02-15T07:39:05.099Z,103305.75
2019-02-15T07:41:34.277Z,103304.11
2019-02-15T07:44:02.959Z,103303.70
2019-02-15T07:46:32.081Z,103298.28
2019-02-15T07:49:01.448Z,103306.48
2019-02-15T07:51:30.634Z,103298.65
2019-02-15T07:53:59.800Z,103296.56
2019-02-15T07:56:28.678Z,103297.45
2019-02-15T07:58:57.335Z,103299.01
2019-02-15T08:01:26.477Z,103297.66
2019-02-15T08:03:55.606Z,103298.94
2019-02-15T08:06:24.653Z,103309.33
2019-02-15T08:08:53.556Z,103308.44
2019-02-15T08:11:22.500Z,103308.41
2019-02-15T08:13:51.148Z,103303.27
2019-02-15T08:16:20.030Z,103300.38
2019-02-15T08:18:48.919Z,103296.56
2019-02-15T08:21:17.806Z,103300.27
2019-02-15T08:23:46.680Z,103308.05
2019-02-15T08:26:15.315Z,103304.64
2019-02-15T08:28:44.246Z,103303.52
2019-02-15T08:31:13.129Z,103312.13
2019-02-15T08:33:41.748Z,103317.14
2019-02-15T08:36:10.414Z,103317.14
2019-02-15T08:38:39.306Z,103314.77
2019-02-15T08:41:08.190Z,103316.76
2019-02-15T08:43:37.361Z,103308.95
2019-02-15T08:46:06.097Z,103311.34
2019-02-15T08:48:36.177Z,103304.28
2019-02-15T08:51:04.958Z,103304.28
2019-02-15T08:53:33.844Z,103296.35
2019-02-15T08:56:02.988Z,103300.34
2019-02-15T08:58:32.431Z,103300.34
2019-02-15T09:01:01.592Z,103298.66
2019-02-15T09:03:30.492Z,103308.13
2019-02-15T09:05:59.153Z,103306.80
2019-02-15T09:08:29.939Z,103304.03
2019-02-15T09:10:58.687Z,103299.81
2019-02-15T09:13:27.298Z,103305.48
2019-02-15T09:15:55.959Z,103304.03
2019-02-15T09:18:25.092Z,103297.75
2019-02-15T09:20:54.456Z,103301.13
2019-02-15T09:23:23.406Z,103306.02
2019-02-15T09:25:52.068Z,103297.91
2019-02-15T09:28:26.327Z,103290.08
2019-02-15T09:30:55.543Z,103289.14
2019-02-15T09:33:24.236Z,103291.92
2019-02-15T09:35:53.193Z,103292.41
2019-02-15T09:38:22.104Z,103291.22
2019-02-15T09:40:51.279Z,103283.13
2019-02-15T09:43:20.156Z,103296.38
2019-02-15T09:45:48.900Z,103289.06
2019-02-15T09:48:17.815Z,103289.91
2019-02-15T09:50:46.419Z,103284.02
2019-02-15T09:53:15.314Z,103286.30
2019-02-15T09:55:44.480Z,103288.00
2019-02-15T09:58:13.363Z,103282.09
2019-02-15T10:00:42.021Z,103289.37
2019-02-15T10:03:10.905Z,103285.74
2019-02-15T10:05:39.542Z,103291.59
2019-02-15T10:08:08.200Z,103294.53
2019-02-15T10:10:37.130Z,103294.92
2019-02-15T10:13:06.494Z,103296.84
2019-02-15T10:15:35.670Z,103289.52
2019-02-15T10:18:04.907Z,103285.55
2019-02-15T10:20:33.527Z,103280.23
2019-02-15T10:23:02.176Z,103285.20
2019-02-15T10:25:31.574Z,103280.63
2019-02-15T10:28:00.297Z,103279.09
2019-02-15T10:30:29.202Z,103274.59
2019-02-15T10:32:58.331Z,103276.33
2019-02-15T10:35:27.249Z,103267.69
2019-02-15T10:37:56.117Z,103272.17
2019-02-15T10:40:25.072Z,103275.64
2019-02-15T10:42:53.981Z,103275.02
2019-02-15T10:45:22.613Z,103273.83
2019-02-15T10:47:51.286Z,103269.39
2019-02-15T10:50:19.935Z,103267.84
2019-02-15T10:52:48.577Z,103260.00
2019-02-15T10:55:17.717Z,103258.55
2019-02-15T10:57:46.641Z,103259.34
2019-02-15T11:00:19.581Z,103251.66
2019-02-15T11:02:48.496Z,103249.94
2019-02-15T11:05:17.690Z,103249.84
2019-02-15T11:07:46.920Z,103245.27
2019-02-15T11:10:16.150Z,103230.45
2019-02-15T11:12:44.896Z,103232.64
2019-02-15T11:15:14.162Z,103231.84
2019-02-15T11:17:43.581Z,103224.44
2019-02-15T11:20:13.600Z,103222.04
2019-02-15T11:22:42.506Z,103220.64
2019-02-15T11:25:11.536Z,103217.47
2019-02-15T11:27:40.781Z,103215.63
2019-02-15T11:30:11.717Z,103208.58
2019-02-15T11:32:40.630Z,103203.88
2019-02-15T11:35:10.871Z,103202.97
2019-02-15T11:37:39.795Z,103199.39
2019-02-15T11:40:10.394Z,103198.33
2019-02-15T11:42:39.546Z,103198.28
2019-02-15T11:45:09.447Z,103194.98
2019-02-15T11:47:38.624Z,103194.94
2019-02-15T11:50:08.402Z,103187.98
2019-02-15T11:52:37.389Z,103190.48
2019-02-15T11:55:06.589Z,103188.66
2019-02-15T11:57:35.842Z,103183.44
2019-02-15T12:00:13.818Z,103177.14
2019-02-15T12:02:35.413Z,103177.34
2019-02-15T12:05:04.115Z,103174.73
2019-02-15T12:07:33.014Z,103177.18
2019-02-15T12:10:01.659Z,103178.59
2019-02-15T12:12:30.513Z,103180.35
2019-02-15T12:14:59.713Z,103180.22
2019-02-15T12:17:28.597Z,103172.05
2019-02-15T12:19:57.487Z,103170.88
2019-02-15T12:22:26.419Z,103174.13
2019-02-15T12:24:55.285Z,103179.23
2019-02-15T12:27:24.473Z,103172.97
2019-02-15T12:29:53.398Z,103175.25
2019-02-15T12:32:22.265Z,103173.66
2019-02-15T12:34:51.360Z,103169.36
2019-02-15T12:37:20.262Z,103161.82
2019-02-15T12:39:49.399Z,103152.63
2019-02-15T12:42:18.343Z,103156.91
2019-02-15T12:44:47.688Z,103158.98
2019-02-15T12:47:16.298Z,103152.70
2019-02-15T12:49:45.125Z,103161.47
2019-02-15T12:52:14.076Z,103151.45
2019-02-15T12:54:42.945Z,103143.81
2019-02-15T12:57:12.172Z,103142.99
2019-02-15T12:59:41.091Z,103142.53
2019-02-15T13:02:09.978Z,103141.48
2019-02-15T13:04:38.905Z,103135.33
2019-02-15T13:07:07.607Z,103133.71
2019-02-15T13:09:36.573Z,103130.44
2019-02-15T13:12:05.201Z,103128.30
2019-02-15T13:14:34.089Z,103125.98
2019-02-15T13:17:03.013Z,103119.36
2019-02-15T13:19:32.150Z,103122.98
2019-02-15T13:22:01.029Z,103126.20
2019-02-15T13:24:30.190Z,103112.81
2019-02-15T13:26:59.148Z,103109.53
2019-02-15T13:29:27.789Z,103107.84
2019-02-15T13:31:56.444Z,103101.68
2019-02-15T13:34:25.331Z,103098.66
2019-02-15T13:36:53.968Z,103096.87
2019-02-15T13:39:22.877Z,103094.02
2019-02-15T13:41:51.546Z,103090.28
2019-02-15T13:44:20.473Z,103093.25
2019-02-15T13:46:49.130Z,103093.12
2019-02-15T13:49:17.824Z,103093.34
2019-02-15T13:51:46.716Z,103081.00
2019-02-15T13:54:15.670Z,103083.66
2019-02-15T13:56:44.557Z,103077.51
2019-02-15T13:59:13.446Z,103072.92
2019-02-15T14:01:42.306Z,103076.87
2019-02-15T14:04:11.003Z,103072.48
2019-02-15T14:06:39.920Z,103063.17
2019-02-15T14:09:08.996Z,103059.50
2019-02-15T14:11:37.878Z,103060.83
2019-02-15T14:14:06.591Z,103065.45
2019-02-15T14:16:35.220Z,103057.31
2019-02-15T14:19:03.868Z,103056.61
2019-02-15T14:21:32.724Z,103060.55
2019-02-15T14:24:01.642Z,103057.63
2019-02-15T14:26:30.773Z,103057.02
2019-02-15T14:29:00.170Z,103060.19
2019-02-15T14:31:29.372Z,103049.80
2019-02-15T14:33:58.327Z,103046.31
2019-02-15T14:36:27.307Z,103055.39
2019-02-15T14:38:56.495Z,103051.99
2019-02-15T14:41:25.439Z,103042.87
2019-02-15T14:43:54.661Z,103047.17
2019-02-15T14:46:23.804Z,103052.57
2019-02-15T14:48:52.739Z,103048.03
2019-02-15T14:51:21.896Z,103046.48
2019-02-15T14:53:50.556Z,103034.76
2019-02-15T14:56:19.217Z,103030.41
2019-02-15T14:58:48.404Z,103027.46
2019-02-15T15:01:17.082Z,103029.93
2019-02-15T15:03:45.949Z,103031.22
2019-02-15T15:06:14.594Z,103023.58
2019-02-15T15:08:43.212Z,103009.16
2019-02-15T15:11:12.132Z,103013.75
2019-02-15T15:13:41.047Z,103010.06
2019-02-15T15:16:10.145Z,103007.42
2019-02-15T15:18:39.070Z,103005.27
2019-02-15T15:21:07.981Z,103003.05
2019-02-15T15:23:36.893Z,103004.11
2019-02-15T15:26:11.524Z,102994.25
2019-02-15T15:28:36.424Z,102993.75
2019-02-15T15:31:05.553Z,102992.45
2019-02-15T15:33:34.701Z,102993.97
2019-02-15T15:36:03.594Z,102986.27
2019-02-15T15:38:32.730Z,102977.38
2019-02-15T15:41:01.853Z,102973.39
2019-02-15T15:43:30.510Z,102975.07
2019-02-15T15:45:59.302Z,102968.77
2019-02-15T15:48:28.177Z,102966.87
2019-02-15T15:50:57.087Z,102963.50
2019-02-15T15:53:28.574Z,102962.41
2019-02-15T15:55:57.493Z,102970.22
2019-02-15T15:58:26.154Z,102967.75
2019-02-15T16:00:55.134Z,102971.00
2019-02-15T16:03:23.779Z,102966.80
2019-02-15T16:05:52.684Z,102961.80
2019-02-15T16:08:21.569Z,102957.12
2019-02-15T16:10:50.465Z,102958.36
2019-02-15T16:13:19.422Z,102956.86
2019-02-15T16:15:48.307Z,102961.64
2019-02-15T16:18:17.223Z,102951.25
2019-02-15T16:20:47.155Z,102959.98
2019-02-15T16:23:15.799Z,102958.80
2019-02-15T16:25:44.703Z,102964.17
2019-02-15T16:28:13.339Z,102962.86
2019-02-15T16:30:44.374Z,102962.77
2019-02-15T16:33:13.027Z,102962.88
2019-02-15T16:35:43.339Z,102962.41
2019-02-15T16:38:17.389Z,102960.88
2019-02-15T16:42:08.793Z,102963.02
2019-02-15T16:48:18.264Z,102963.23
2019-02-15T16:54:35.683Z,102960.70
2019-02-15T16:57:09.444Z,102952.61
2019-02-15T16:59:47.366Z,102954.98
2019-02-15T17:02:16.305Z,102957.86
2019-02-15T17:04:48.465Z,102955.76
2019-02-15T17:07:17.540Z,102953.88
2019-02-15T17:09:46.267Z,102959.44
2019-02-15T17:12:14.948Z,102955.20
2019-02-15T17:14:43.956Z,102952.86
2019-02-15T17:17:13.127Z,102956.53
2019-02-15T17:19:42.142Z,102951.28
2019-02-15T17:22:11.097Z,102945.58
2019-02-15T17:24:39.741Z,102934.95
2019-02-15T17:27:08.922Z,102934.95
2019-02-15T17:29:37.918Z,102952.06
2019-02-15T17:32:06.832Z,102950.59
2019-02-15T17:34:36.060Z,102943.58
2019-02-15T17:37:08.611Z,102943.58
2019-02-15T17:39:42.280Z,102937.64
2019-02-15T17:42:11.252Z,102939.34
2019-02-15T17:44:39.932Z,102934.91
2019-02-15T17:47:08.804Z,102942.58
2019-02-15T17:49:38.396Z,102935.49
2019-02-15T17:52:08.968Z,102935.49
2019-02-15T17:54:39.260Z,102936.09
2019-02-15T17:57:08.512Z,102935.14
2019-02-15T17:59:37.290Z,102931.03
2019-02-15T18:02:07.970Z,102921.00
2019-02-15T18:04:36.980Z,102926.00
2019-02-15T18:07:05.921Z,102927.02
2019-02-15T18:09:34.853Z,102928.66
2019-02-15T18:12:03.586Z,102921.34
2019-02-15T18:14:32.569Z,102917.52
2019-02-15T18:17:01.286Z,102916.56
2019-02-15T18:19:30.559Z,102910.91
2019-02-15T18:21:59.806Z,102907.92
2019-02-15T18:24:29.178Z,102909.88
2019-02-15T18:26:58.031Z,102907.85
2019-02-15T18:29:27.184Z,102903.27
2019-02-15T18:31:57.756Z,102908.20
2019-02-15T18:34:26.943Z,102902.62
2019-02-15T18:36:55.946Z,102904.02
2019-02-15T18:39:24.626Z,102901.05
2019-02-15T18:41:53.596Z,102902.54
2019-02-15T18:44:22.778Z,102897.84
2019-02-15T18:46:51.757Z,102899.05
2019-02-15T18:49:20.978Z,102891.62
2019-02-15T18:51:50.056Z,102896.87
2019-02-15T18:54:18.786Z,102889.67
2019-02-15T18:56:47.758Z,102893.91
2019-02-15T18:59:16.672Z,102890.31
2019-02-15T19:01:46.256Z,102888.36
2019-02-15T19:04:15.212Z,102876.83
2019-02-15T19:06:44.163Z,102887.22
2019-02-15T19:09:13.375Z,102882.41
2019-02-15T19:11:42.333Z,102885.57
2019-02-15T19:14:11.045Z,102884.28
2019-02-15T19:16:40.559Z,102879.30
2019-02-15T19:19:09.562Z,102883.44
2019-02-15T19:21:38.554Z,102885.34
2019-02-15T19:24:07.551Z,102880.80
2019-02-15T19:26:36.696Z,102881.95
2019-02-15T19:29:05.858Z,102873.58
2019-02-15T19:31:34.811Z,102874.40
2019-02-15T19:34:03.706Z,102873.41
2019-02-15T19:36:33.159Z,102872.53
2019-02-15T19:39:02.348Z,102868.39
2019-02-15T19:41:31.509Z,102864.21
2019-02-15T19:44:00.419Z,102869.80
2019-02-15T19:46:29.097Z,102862.24
2019-02-15T19:48:57.957Z,102866.63
2019-02-15T19:51:27.105Z,102857.77
2019-02-15T19:53:56.106Z,102852.28
2019-02-15T19:56:25.204Z,102852.28
2019-02-15T19:58:54.352Z,102848.19
2019-02-15T20:01:23.290Z,102848.19
2019-02-15T20:03:54.831Z,102846.34
2019-02-15T20:06:24.059Z,102843.84
2019-02-15T20:08:53.295Z,102845.39
2019-02-15T20:11:22.177Z,102845.39
2019-02-15T20:13:50.821Z,102833.75
2019-02-15T20:16:19.752Z,102833.75
2019-02-15T20:18:48.396Z,102833.75
2019-02-15T20:21:17.602Z,102830.13
2019-02-15T20:23:48.040Z,102823.89
2019-02-15T20:26:16.944Z,102822.78
2019-02-15T20:28:45.855Z,102822.78
2019-02-15T20:31:14.611Z,102822.78
2019-02-15T20:33:43.507Z,102809.18
2019-02-15T20:36:12.619Z,102815.18
2019-02-15T20:38:41.598Z,102811.48
2019-02-15T20:41:10.243Z,102811.48
2019-02-15T20:43:38.940Z,102811.09
2019-02-15T20:46:07.876Z,102808.45
2019-02-15T20:48:37.030Z,102813.73
2019-02-15T20:51:05.918Z,102805.76
2019-02-15T20:53:34.591Z,102805.76
2019-02-15T20:56:03.524Z,102814.88
2019-02-15T20:58:32.768Z,102814.88
2019-02-15T21:01:01.790Z,102808.45
2019-02-15T21:03:30.986Z,102812.14
2019-02-15T21:05:59.943Z,102812.14
2019-02-15T21:08:29.154Z,102813.11
2019-02-15T21:10:58.132Z,102808.42
2019-02-15T21:13:27.059Z,102799.52
2019-02-15T21:15:56.783Z,102799.52
2019-02-15T21:18:25.679Z,102811.28
2019-02-15T21:20:54.553Z,102807.56
2019-02-15T21:23:23.215Z,102800.47
2019-02-15T21:25:52.114Z,102800.47
2019-02-15T21:28:21.024Z,102797.27
2019-02-15T21:30:49.934Z,102797.27
2019-02-15T21:33:18.816Z,102791.13
2019-02-15T21:35:47.732Z,102791.47
2019-02-15T21:38:16.408Z,102783.16
2019-02-15T21:40:45.715Z,102783.16
2019-02-15T21:43:14.873Z,102770.92
2019-02-15T21:45:46.266Z,102770.92
2019-02-15T21:48:15.469Z,102773.58
2019-02-15T21:50:44.105Z,102780.34
2019-02-15T21:53:13.046Z,102777.23
2019-02-15T21:55:41.712Z,102772.64
2019-02-15T21:58:10.867Z,102769.75
2019-02-15T22:00:39.901Z,102773.20
2019-02-15T22:03:08.778Z,102773.20
2019-02-15T22:05:40.023Z,102768.75
2019-02-15T22:08:12.370Z,102770.03
2019-02-15T22:10:41.799Z,102770.03
2019-02-15T22:13:10.435Z,102764.69
2019-02-15T22:15:39.377Z,102759.84
2019-02-15T22:18:08.289Z,102756.11
2019-02-15T22:20:36.924Z,102756.11
2019-02-15T22:23:07.130Z,102751.99
2019-02-15T22:25:35.807Z,102744.81
2019-02-15T22:28:04.446Z,102734.01
2019-02-15T22:30:33.110Z,102733.20
2019-02-15T22:33:01.975Z,102729.73
2019-02-15T22:35:30.602Z,102734.09
2019-02-15T22:37:59.780Z,102734.09
2019-02-15T22:40:32.845Z,102723.20
2019-02-15T22:43:04.830Z,102720.14
2019-02-15T22:45:33.942Z,102720.95
2019-02-15T22:48:16.310Z,102712.94
2019-02-15T22:50:44.952Z,102715.52
2019-02-15T22:53:13.828Z,102708.62
2019-02-15T22:55:42.737Z,102705.96
2019-02-15T22:58:11.641Z,102705.96
2019-02-15T23:00:51.896Z,102698.61
2019-02-15T23:03:22.974Z,102700.38
2019-02-15T23:05:51.967Z,102700.19
2019-02-15T23:08:20.859Z,102700.19
2019-02-15T23:10:49.561Z,102701.08
2019-02-15T23:13:18.763Z,102695.06
2019-02-15T23:15:48.108Z,102699.17
2019-02-15T23:18:18.932Z,102698.95
2019-02-15T23:20:47.305Z,102700.43
2019-02-15T23:23:15.968Z,102705.34
2019-02-15T23:25:44.686Z,102701.02
2019-02-15T23:28:13.553Z,102705.11
2019-02-15T23:30:42.469Z,102702.19
2019-02-15T23:33:11.365Z,102701.38
2019-02-15T23:35:40.078Z,102690.90
2019-02-15T23:38:08.745Z,102690.90
2019-02-15T23:40:37.638Z,102697.69
2019-02-15T23:43:06.514Z,102688.32
2019-02-15T23:45:35.505Z,102688.32
2019-02-15T23:48:04.397Z,102680.98
2019-02-15T23:50:33.261Z,102680.39
2019-02-15T23:53:02.183Z,102675.63
2019-02-15T23:55:31.077Z,102677.92
2019-02-15T23:58:00.065Z,102674.13
